createdAt,value
2023-03-20T00:00:02.201Z,36.40
2023-03-20T00:02:33.808Z,36.50
2023-03-20T00:05:02.740Z,36.40
2023-03-20T00:07:33.244Z,36.40
2023-03-20T00:10:02.721Z,36.30
2023-03-20T00:12:32.731Z,36.50
2023-03-20T00:15:04.627Z,36.30
2023-03-20T00:17:33.840Z,36.30
2023-03-20T00:20:02.786Z,36.20
2023-03-20T00:22:33.228Z,36.40
2023-03-20T00:25:01.998Z,36.40
2023-03-20T00:27:31.133Z,36.70
2023-03-20T00:30:00.193Z,36.90
2023-03-20T00:32:29.414Z,36.90
2023-03-20T00:34:59.574Z,36.80
2023-03-20T00:37:29.050Z,36.80
2023-03-20T00:40:00.981Z,36.70
2023-03-20T00:42:30.086Z,36.60
2023-03-20T00:44:59.699Z,36.50
2023-03-20T00:47:30.301Z,36.40
2023-03-20T00:49:59.150Z,36.40
2023-03-20T00:52:28.674Z,36.30
2023-03-20T00:54:57.452Z,36.50
2023-03-20T00:57:37.078Z,36.50
2023-03-20T01:00:09.790Z,36.90
2023-03-20T01:02:38.942Z,36.90
2023-03-20T01:05:08.332Z,36.70
2023-03-20T01:07:37.375Z,36.70
2023-03-20T01:10:07.599Z,36.80
2023-03-20T01:12:39.500Z,36.60
2023-03-20T01:15:20.980Z,36.50
2023-03-20T01:17:50.504Z,36.50
2023-03-20T01:20:23.945Z,36.50
2023-03-20T01:22:53.441Z,36.70
2023-03-20T01:25:22.748Z,36.50
2023-03-20T01:27:58.011Z,36.60
2023-03-20T01:30:32.320Z,36.40
2023-03-20T01:33:11.070Z,36.40
2023-03-20T01:35:41.142Z,36.40
2023-03-20T01:38:16.313Z,36.80
2023-03-20T01:40:57.202Z,36.70
2023-03-20T01:43:31.069Z,36.50
2023-03-20T01:46:17.515Z,36.50
2023-03-20T01:49:30.112Z,36.50
2023-03-20T01:52:03.656Z,36.60
2023-03-20T01:54:40.065Z,36.80
2023-03-20T01:57:17.949Z,36.60
2023-03-20T01:59:53.251Z,36.50
2023-03-20T02:02:29.717Z,36.50
2023-03-20T02:05:05.070Z,36.50
2023-03-20T02:07:37.381Z,36.50
2023-03-20T02:10:15.662Z,36.70
2023-03-20T02:13:05.811Z,36.60
2023-03-20T02:16:13.090Z,36.60
2023-03-20T02:19:16.109Z,36.60
2023-03-20T02:22:33.492Z,37.20
2023-03-20T02:26:19.734Z,37.20
2023-03-20T02:29:51.744Z,37.20
2023-03-20T02:33:10.198Z,37.00
2023-03-20T02:36:39.698Z,37.10
2023-03-20T02:39:46.354Z,36.90
2023-03-20T02:42:28.888Z,37.00
2023-03-20T02:45:16.033Z,36.90
2023-03-20T02:47:57.472Z,37.10
2023-03-20T02:50:41.331Z,37.20
2023-03-20T02:53:29.358Z,37.00
2023-03-20T02:56:13.711Z,37.00
2023-03-20T02:58:51.728Z,37.00
2023-03-20T03:01:30.929Z,37.20
2023-03-20T03:04:05.411Z,37.00
2023-03-20T03:06:38.739Z,37.10
2023-03-20T03:09:17.609Z,37.20
2023-03-20T03:11:54.750Z,37.00
2023-03-20T03:14:38.154Z,37.20
2023-03-20T03:17:14.808Z,37.30
2023-03-20T03:19:50.331Z,37.30
2023-03-20T03:22:21.323Z,37.20
2023-03-20T03:24:53.030Z,37.20
2023-03-20T03:27:28.321Z,37.10
2023-03-20T03:30:01.787Z,36.70
2023-03-20T03:32:35.421Z,36.80
2023-03-20T03:35:08.227Z,36.80
2023-03-20T03:37:55.397Z,37.10
2023-03-20T03:40:34.241Z,37.10
2023-03-20T03:43:13.335Z,37.20
2023-03-20T03:45:49.993Z,36.90
2023-03-20T03:48:24.479Z,36.90
2023-03-20T03:50:59.441Z,36.90
2023-03-20T03:53:37.766Z,37.10
2023-03-20T03:56:15.416Z,37.20
2023-03-20T03:58:50.737Z,37.00
2023-03-20T04:01:22.312Z,36.90
2023-03-20T04:03:55.027Z,37.30
2023-03-20T04:06:25.957Z,37.40
2023-03-20T04:08:54.948Z,37.10
2023-03-20T04:11:28.534Z,37.40
2023-03-20T04:13:59.555Z,37.20
2023-03-20T04:16:28.872Z,37.00
2023-03-20T04:18:57.990Z,36.90
2023-03-20T04:21:27.343Z,37.00
2023-03-20T04:23:56.316Z,36.90
2023-03-20T04:26:25.716Z,37.30
2023-03-20T04:28:54.818Z,37.30
2023-03-20T04:31:42.451Z,37.20
2023-03-20T04:34:14.349Z,37.30
2023-03-20T04:36:43.409Z,37.40
2023-03-20T04:39:15.120Z,37.20
2023-03-20T04:41:44.263Z,36.90
2023-03-20T04:44:13.028Z,37.10
2023-03-20T04:46:46.321Z,37.10
2023-03-20T04:49:18.920Z,37.00
2023-03-20T04:51:48.206Z,36.90
2023-03-20T04:54:21.955Z,37.10
2023-03-20T04:56:51.129Z,37.30
2023-03-20T04:59:22.282Z,37.40
2023-03-20T05:01:54.133Z,38.10
2023-03-20T05:04:24.644Z,37.50
2023-03-20T05:06:53.783Z,37.60
2023-03-20T05:09:25.703Z,37.50
2023-03-20T05:11:56.152Z,37.50
2023-03-20T05:15:01.314Z,37.40
2023-03-20T05:17:51.784Z,37.30
2023-03-20T05:20:56.219Z,37.60
2023-03-20T05:23:34.233Z,37.50
2023-03-20T05:26:21.411Z,37.30
2023-03-20T05:29:16.706Z,37.40
2023-03-20T05:31:48.185Z,37.80
2023-03-20T05:34:36.119Z,37.80
2023-03-20T05:37:11.535Z,37.70
2023-03-20T05:40:14.461Z,37.90
2023-03-20T05:43:01.328Z,38.10
2023-03-20T05:45:44.946Z,38.10
2023-03-20T05:48:39.766Z,37.80
2023-03-20T05:51:40.035Z,37.90
2023-03-20T05:54:15.474Z,38.10
2023-03-20T05:57:05.754Z,38.30
2023-03-20T05:59:46.124Z,38.40
2023-03-20T06:02:47.774Z,38.40
2023-03-20T06:05:43.313Z,38.50
2023-03-20T06:08:13.796Z,38.40
2023-03-20T06:10:42.729Z,38.40
2023-03-20T06:13:12.771Z,38.40
2023-03-20T06:15:42.177Z,38.10
2023-03-20T06:18:17.217Z,38.10
2023-03-20T06:20:46.086Z,37.80
2023-03-20T06:23:17.536Z,38.20
2023-03-20T06:25:46.554Z,37.70
2023-03-20T06:28:16.962Z,37.60
2023-03-20T06:30:46.016Z,37.50
2023-03-20T06:33:19.432Z,37.60
2023-03-20T06:35:59.153Z,37.60
2023-03-20T06:38:32.057Z,37.40
2023-03-20T06:41:06.949Z,37.00
2023-03-20T06:43:37.471Z,37.00
2023-03-20T06:46:07.509Z,37.00
2023-03-20T06:48:38.349Z,36.50
2023-03-20T06:51:09.262Z,36.90
2023-03-20T06:53:49.009Z,36.60
2023-03-20T06:56:21.478Z,36.50
2023-03-20T06:58:50.544Z,35.90
2023-03-20T07:01:20.482Z,35.80
2023-03-20T07:03:50.567Z,35.90
2023-03-20T07:06:25.735Z,35.90
2023-03-20T07:08:56.570Z,36.00
2023-03-20T07:11:25.479Z,35.90
2023-03-20T07:13:57.131Z,36.10
2023-03-20T07:16:45.039Z,35.40
2023-03-20T07:19:14.449Z,35.30
2023-03-20T07:21:46.427Z,35.20
2023-03-20T07:24:19.095Z,35.50
2023-03-20T07:26:47.905Z,35.20
2023-03-20T07:29:17.564Z,35.30
2023-03-20T07:31:48.012Z,35.40
2023-03-20T07:34:24.891Z,34.70
2023-03-20T07:36:54.432Z,34.70
2023-03-20T07:39:25.968Z,33.90
2023-03-20T07:42:14.693Z,33.70
2023-03-20T07:44:53.854Z,33.20
2023-03-20T07:47:23.365Z,33.10
2023-03-20T07:49:52.600Z,33.30
2023-03-20T07:52:21.496Z,33.10
2023-03-20T07:54:52.054Z,33.00
2023-03-20T07:57:23.002Z,33.20
2023-03-20T07:59:52.199Z,33.00
2023-03-20T08:02:21.115Z,33.10
2023-03-20T08:04:50.318Z,33.30
2023-03-20T08:07:19.610Z,33.30
2023-03-20T08:09:48.830Z,33.20
2023-03-20T08:12:19.218Z,33.10
2023-03-20T08:14:48.429Z,33.30
2023-03-20T08:17:20.726Z,33.20
2023-03-20T08:19:50.434Z,32.60
2023-03-20T08:22:19.231Z,32.40
2023-03-20T08:24:48.342Z,32.40
2023-03-20T08:27:18.564Z,32.50
2023-03-20T08:29:47.777Z,32.70
2023-03-20T08:32:16.660Z,32.60
2023-03-20T08:34:46.064Z,32.60
2023-03-20T08:37:16.008Z,32.40
2023-03-20T08:39:45.266Z,32.10
2023-03-20T08:42:14.324Z,32.20
2023-03-20T08:44:45.174Z,32.30
2023-03-20T08:47:13.944Z,32.30
2023-03-20T08:49:43.762Z,32.20
2023-03-20T08:52:12.766Z,33.10
2023-03-20T08:54:41.978Z,32.90
2023-03-20T08:57:11.206Z,33.00
2023-03-20T08:59:40.339Z,32.30
2023-03-20T09:02:12.493Z,31.70
2023-03-20T09:04:42.085Z,31.70
2023-03-20T09:07:11.227Z,31.90
2023-03-20T09:09:40.455Z,32.00
2023-03-20T09:12:09.787Z,31.00
2023-03-20T09:14:39.366Z,31.00
2023-03-20T09:17:10.009Z,31.10
2023-03-20T09:19:40.109Z,31.80
2023-03-20T09:22:09.102Z,32.20
2023-03-20T09:24:38.151Z,31.50
2023-03-20T09:27:07.099Z,30.90
2023-03-20T09:29:36.182Z,30.90
2023-03-20T09:32:05.276Z,30.60
2023-03-20T09:34:35.771Z,30.60
2023-03-20T09:37:04.743Z,30.20
2023-03-20T09:39:34.276Z,29.90
2023-03-20T09:42:19.711Z,29.70
2023-03-20T09:45:03.472Z,29.90
2023-03-20T09:47:41.788Z,29.60
2023-03-20T09:50:26.965Z,29.70
2023-03-20T09:53:07.119Z,29.40
2023-03-20T09:55:39.296Z,29.10
2023-03-20T09:58:16.191Z,29.00
2023-03-20T10:00:47.879Z,29.00
2023-03-20T10:03:28.167Z,29.40
2023-03-20T10:06:03.604Z,29.20
2023-03-20T10:08:38.132Z,28.90
2023-03-20T10:11:28.928Z,28.70
2023-03-20T10:14:25.612Z,29.30
2023-03-20T10:17:14.149Z,29.10
2023-03-20T10:19:49.412Z,29.60
2023-03-20T10:22:25.510Z,29.30
2023-03-20T10:25:04.454Z,29.20
2023-03-20T10:27:41.329Z,29.50
2023-03-20T10:30:35.921Z,29.60
2023-03-20T10:33:27.041Z,30.00
2023-03-20T10:36:16.259Z,29.90
2023-03-20T10:38:55.118Z,30.30
2023-03-20T10:41:33.470Z,30.10
2023-03-20T10:44:03.945Z,30.80
2023-03-20T10:46:41.698Z,30.30
2023-03-20T10:49:20.472Z,30.60
2023-03-20T10:51:54.025Z,31.00
2023-03-20T10:54:29.824Z,31.20
2023-03-20T10:57:02.895Z,30.90
2023-03-20T10:59:40.528Z,30.60
2023-03-20T11:02:14.055Z,30.90
2023-03-20T11:04:43.376Z,30.70
2023-03-20T11:07:24.779Z,31.00
2023-03-20T11:10:13.437Z,30.20
2023-03-20T11:12:45.820Z,30.60
2023-03-20T11:15:25.509Z,30.10
2023-03-20T11:17:57.374Z,30.30
2023-03-20T11:20:34.125Z,30.00
2023-03-20T11:23:08.279Z,29.70
2023-03-20T11:25:48.182Z,29.50
2023-03-20T11:28:35.370Z,29.40
2023-03-20T11:31:15.740Z,29.20
2023-03-20T11:33:47.738Z,30.00
2023-03-20T11:36:27.883Z,29.70
2023-03-20T11:39:06.876Z,29.70
2023-03-20T11:41:48.486Z,29.50
2023-03-20T11:44:25.835Z,29.90
2023-03-20T11:47:01.734Z,30.40
2023-03-20T11:49:32.603Z,30.20
2023-03-20T11:52:12.534Z,30.40
2023-03-20T11:54:48.408Z,30.40
2023-03-20T11:57:35.278Z,30.90
2023-03-20T12:00:20.435Z,30.70
2023-03-20T12:02:49.724Z,30.90
2023-03-20T12:05:33.420Z,30.90
2023-03-20T12:08:10.446Z,30.70
2023-03-20T12:10:47.136Z,30.40
2023-03-20T12:13:25.216Z,30.90
2023-03-20T12:16:02.664Z,31.00
2023-03-20T12:18:37.764Z,31.00
2023-03-20T12:21:14.044Z,30.90
2023-03-20T12:23:48.750Z,30.90
2023-03-20T12:26:27.954Z,31.10
2023-03-20T12:29:09.302Z,30.10
2023-03-20T12:31:47.747Z,30.30
2023-03-20T12:34:25.076Z,30.20
2023-03-20T12:36:57.597Z,30.50
2023-03-20T12:39:34.418Z,31.00
2023-03-20T12:42:18.550Z,31.40
2023-03-20T12:44:54.751Z,31.80
2023-03-20T12:47:49.375Z,32.20
2023-03-20T12:50:31.165Z,32.50
2023-03-20T12:53:31.105Z,32.90
2023-03-20T12:56:16.155Z,33.10
2023-03-20T12:58:53.983Z,33.00
2023-03-20T13:01:32.925Z,33.20
2023-03-20T13:04:42.977Z,33.20
2023-03-20T13:07:21.378Z,33.30
2023-03-20T13:10:13.703Z,33.80
2023-03-20T13:13:05.588Z,34.30
2023-03-20T13:15:53.237Z,34.90
2023-03-20T13:18:40.978Z,35.20
2023-03-20T13:21:18.429Z,35.80
2023-03-20T13:24:00.140Z,35.90
2023-03-20T13:26:39.821Z,36.30
2023-03-20T13:29:18.982Z,36.80
2023-03-20T13:32:04.252Z,37.00
2023-03-20T13:34:59.461Z,37.20
2023-03-20T13:37:36.102Z,37.40
2023-03-20T13:40:17.794Z,37.50
2023-03-20T13:42:53.915Z,37.90
2023-03-20T13:45:36.641Z,37.90
2023-03-20T13:48:28.245Z,38.10
2023-03-20T13:51:11.511Z,38.30
2023-03-20T13:53:55.523Z,38.40
2023-03-20T13:56:39.123Z,38.60
2023-03-20T13:59:57.938Z,38.90
2023-03-20T14:02:42.046Z,39.10
2023-03-20T14:05:18.941Z,39.40
2023-03-20T14:07:51.551Z,39.60
2023-03-20T14:10:40.267Z,39.50
2023-03-20T14:13:18.605Z,39.70
2023-03-20T14:15:55.618Z,39.70
2023-03-20T14:18:27.634Z,39.40
2023-03-20T14:21:00.822Z,39.50
2023-03-20T14:23:40.566Z,39.60
2023-03-20T14:26:24.602Z,39.80
2023-03-20T14:29:02.711Z,39.70
2023-03-20T14:31:37.840Z,39.70
2023-03-20T14:34:18.124Z,39.80
2023-03-20T14:36:58.267Z,40.00
2023-03-20T14:39:47.875Z,40.00
2023-03-20T14:42:34.743Z,40.20
2023-03-20T14:45:33.333Z,40.50
2023-03-20T14:48:26.721Z,40.50
2023-03-20T14:51:31.004Z,40.60
2023-03-20T14:54:29.308Z,40.90
2023-03-20T14:57:18.725Z,41.10
2023-03-20T14:59:51.087Z,42.20
2023-03-20T15:02:30.092Z,41.40
2023-03-20T15:04:59.183Z,41.80
2023-03-20T15:07:32.799Z,41.70
2023-03-20T15:10:06.032Z,41.80
2023-03-20T15:12:39.346Z,42.00
2023-03-20T15:15:23.922Z,41.90
2023-03-20T15:17:53.233Z,42.00
2023-03-20T15:20:25.583Z,42.60
2023-03-20T15:22:58.063Z,42.10
2023-03-20T15:25:34.424Z,42.20
2023-03-20T15:28:07.562Z,42.10
2023-03-20T15:30:41.017Z,42.00
2023-03-20T15:33:20.918Z,42.10
2023-03-20T15:35:50.809Z,41.90
2023-03-20T15:38:21.443Z,41.80
2023-03-20T15:40:51.811Z,41.60
2023-03-20T15:43:25.493Z,41.40
2023-03-20T15:46:14.119Z,41.30
2023-03-20T15:48:49.667Z,41.50
2023-03-20T15:51:22.711Z,41.60
2023-03-20T15:53:51.995Z,41.60
2023-03-20T15:56:27.656Z,42.00
2023-03-20T15:58:58.867Z,42.30
2023-03-20T16:01:33.029Z,42.40
2023-03-20T16:04:02.184Z,42.60
2023-03-20T16:06:31.040Z,42.90
2023-03-20T16:09:06.259Z,43.00
2023-03-20T16:11:42.069Z,43.10
2023-03-20T16:14:21.182Z,43.40
2023-03-20T16:16:53.703Z,43.40
2023-03-20T16:19:24.687Z,43.50
2023-03-20T16:21:58.253Z,43.60
2023-03-20T16:24:31.208Z,43.80
2023-03-20T16:27:00.285Z,44.40
2023-03-20T16:29:31.120Z,44.50
2023-03-20T16:32:05.425Z,44.70
2023-03-20T16:34:37.653Z,45.10
2023-03-20T16:37:22.978Z,45.20
2023-03-20T16:40:06.153Z,45.10
2023-03-20T16:42:35.190Z,45.10
2023-03-20T16:45:16.651Z,45.10
2023-03-20T16:47:46.095Z,45.20
2023-03-20T16:50:22.055Z,45.20
2023-03-20T16:52:57.882Z,45.20
2023-03-20T16:55:31.933Z,45.30
2023-03-20T16:58:06.015Z,45.10
2023-03-20T17:00:48.424Z,45.40
2023-03-20T17:03:20.434Z,45.40
2023-03-20T17:05:57.869Z,45.40
2023-03-20T17:08:40.974Z,45.40
2023-03-20T17:11:14.701Z,45.40
2023-03-20T17:13:43.867Z,45.30
2023-03-20T17:16:20.156Z,45.30
2023-03-20T17:19:01.957Z,45.20
2023-03-20T17:21:31.534Z,45.10
2023-03-20T17:24:00.915Z,44.90
2023-03-20T17:26:30.810Z,44.80
2023-03-20T17:29:00.236Z,44.80
2023-03-20T17:31:31.806Z,44.70
2023-03-20T17:34:00.732Z,44.70
2023-03-20T17:36:33.992Z,44.60
2023-03-20T17:39:03.415Z,44.50
2023-03-20T17:41:32.581Z,45.20
2023-03-20T17:44:01.689Z,44.50
2023-03-20T17:46:38.095Z,44.50
2023-03-20T17:49:19.745Z,44.60
2023-03-20T17:51:48.884Z,44.60
2023-03-20T17:54:17.738Z,44.70
2023-03-20T17:56:46.891Z,44.60
2023-03-20T17:59:16.506Z,44.50
2023-03-20T18:01:49.134Z,44.50
2023-03-20T18:04:19.773Z,44.60
2023-03-20T18:06:49.238Z,44.60
2023-03-20T18:09:18.261Z,44.50
2023-03-20T18:11:47.416Z,44.30
2023-03-20T18:14:18.890Z,44.40
2023-03-20T18:16:49.523Z,44.20
2023-03-20T18:19:26.588Z,44.20
2023-03-20T18:21:56.129Z,44.20
2023-03-20T18:24:25.882Z,44.30
2023-03-20T18:26:56.088Z,44.30
2023-03-20T18:29:25.019Z,44.40
2023-03-20T18:31:55.768Z,44.40
2023-03-20T18:34:24.628Z,44.40
2023-03-20T18:36:53.681Z,44.70
2023-03-20T18:39:25.405Z,44.80
2023-03-20T18:41:54.627Z,44.90
2023-03-20T18:44:23.622Z,45.00
2023-03-20T18:46:54.173Z,45.00
2023-03-20T18:49:23.077Z,45.10
2023-03-20T18:51:53.255Z,45.00
2023-03-20T18:54:22.066Z,45.00
2023-03-20T18:56:51.997Z,45.00
2023-03-20T18:59:20.792Z,45.10
2023-03-20T19:01:50.008Z,45.00
2023-03-20T19:04:20.341Z,45.20
2023-03-20T19:06:49.690Z,45.30
2023-03-20T19:09:18.500Z,45.40
2023-03-20T19:11:47.677Z,45.30
2023-03-20T19:14:16.485Z,45.20
2023-03-20T19:16:46.300Z,44.90
2023-03-20T19:19:16.980Z,44.90
2023-03-20T19:21:47.448Z,44.80
2023-03-20T19:24:18.133Z,44.70
2023-03-20T19:26:47.636Z,44.70
2023-03-20T19:29:18.218Z,44.60
2023-03-20T19:31:47.389Z,44.60
2023-03-20T19:34:44.585Z,44.50
2023-03-20T19:37:06.654Z,44.60
2023-03-20T19:39:35.523Z,44.60
2023-03-20T19:42:30.316Z,44.70
2023-03-20T19:44:54.768Z,44.40
2023-03-20T19:47:23.961Z,44.50
2023-03-20T19:49:52.756Z,44.60
2023-03-20T19:52:34.068Z,44.70
2023-03-20T19:55:03.826Z,44.80
2023-03-20T19:57:33.074Z,44.70
2023-03-20T20:00:48.705Z,44.90
2023-03-20T20:02:52.185Z,45.00
2023-03-20T20:05:27.017Z,46.00
2023-03-20T20:10:50.443Z,45.80
2023-03-20T20:13:22.448Z,46.20
2023-03-20T20:15:52.859Z,47.00
2023-03-20T20:18:25.016Z,47.00
2023-03-20T20:21:49.041Z,47.40
2023-03-20T20:23:46.983Z,47.30
2023-03-20T20:26:15.923Z,47.30
2023-03-20T20:28:45.236Z,47.20
2023-03-20T20:31:14.236Z,46.90
2023-03-20T20:33:49.848Z,46.50
2023-03-20T20:37:13.203Z,46.50
2023-03-20T20:39:18.518Z,46.60
2023-03-20T20:41:47.383Z,46.40
2023-03-20T20:44:17.529Z,46.70
2023-03-20T20:46:47.205Z,46.70
2023-03-20T20:49:19.962Z,46.60
2023-03-20T20:51:49.571Z,46.60
2023-03-20T20:54:20.299Z,46.40
2023-03-20T20:56:49.175Z,46.70
2023-03-20T20:59:18.278Z,46.80
2023-03-20T21:01:47.212Z,46.70
2023-03-20T21:04:16.565Z,46.70
2023-03-20T21:09:36.273Z,46.70
2023-03-20T21:12:06.614Z,46.90
2023-03-20T21:14:35.840Z,47.00
2023-03-20T21:17:06.062Z,47.00
2023-03-20T21:19:38.619Z,47.10
2023-03-20T21:22:10.058Z,47.00
2023-03-20T21:24:41.338Z,47.30
2023-03-20T21:27:15.492Z,47.30
2023-03-20T21:29:47.378Z,47.80
2023-03-20T21:32:23.110Z,47.00
2023-03-20T21:34:53.262Z,47.30
2023-03-20T21:40:13.637Z,47.30
2023-03-20T21:42:42.901Z,47.10
2023-03-20T21:46:13.503Z,47.10
2023-03-20T21:48:36.432Z,47.10
2023-03-20T21:51:31.254Z,47.20
2023-03-20T21:57:08.009Z,47.30
2023-03-20T21:59:50.926Z,47.10
2023-03-20T22:02:19.713Z,47.20
2023-03-20T22:05:48.321Z,47.20
2023-03-20T22:14:17.525Z,47.00
2023-03-20T22:17:20.521Z,46.80
2023-03-20T22:22:56.317Z,46.70
2023-03-20T22:28:09.186Z,46.70
2023-03-20T22:31:13.293Z,46.70
2023-03-20T22:47:21.046Z,46.70
2023-03-20T22:49:50.023Z,46.80
2023-03-20T22:52:31.829Z,47.40
2023-03-20T22:55:03.846Z,46.60
2023-03-20T22:57:42.402Z,46.70
2023-03-20T23:00:17.387Z,46.80
2023-03-20T23:02:47.822Z,46.70
2023-03-20T23:05:16.705Z,46.40
2023-03-20T23:07:46.201Z,46.40
2023-03-20T23:10:34.649Z,46.40
2023-03-20T23:13:22.543Z,46.60
2023-03-20T23:16:03.536Z,46.50
2023-03-20T23:18:34.021Z,46.40
2023-03-20T23:21:03.869Z,46.40
2023-03-20T23:23:34.014Z,46.50
2023-03-20T23:26:05.444Z,46.60
2023-03-20T23:28:35.079Z,46.50
2023-03-20T23:31:10.341Z,46.50
2023-03-20T23:33:41.826Z,46.50
2023-03-20T23:36:24.655Z,46.50
2023-03-20T23:38:54.143Z,46.50
2023-03-20T23:41:43.448Z,46.50
2023-03-20T23:44:12.279Z,46.40
2023-03-20T23:46:41.062Z,46.30
2023-03-20T23:49:11.553Z,46.40
2023-03-20T23:51:40.349Z,46.30
2023-03-20T23:54:09.425Z,46.40
2023-03-20T23:56:38.487Z,46.20
2023-03-20T23:59:18.636Z,46.40
